createdAt,value
2018-05-03T00:01:37.965Z,73.11
2018-05-03T00:04:04.390Z,73.04
2018-05-03T00:06:30.869Z,72.84
2018-05-03T00:08:57.311Z,73.19
2018-05-03T00:11:23.655Z,72.94
2018-05-03T00:13:51.043Z,73.15
2018-05-03T00:16:17.501Z,73.04
2018-05-03T00:18:43.921Z,71.90
2018-05-03T00:21:10.321Z,71.84
2018-05-03T00:23:36.825Z,72.65
2018-05-03T00:26:03.320Z,73.47
2018-05-03T00:28:29.834Z,74.10
2018-05-03T00:30:56.342Z,74.27
2018-05-03T00:33:22.846Z,74.53
2018-05-03T00:35:49.233Z,74.00
2018-05-03T00:38:15.718Z,74.94
2018-05-03T00:40:42.234Z,75.34
2018-05-03T00:43:08.722Z,75.09
2018-05-03T00:45:35.176Z,73.99
2018-05-03T00:48:01.709Z,73.64
2018-05-03T00:50:28.084Z,73.96
2018-05-03T00:52:54.498Z,74.97
2018-05-03T00:55:20.885Z,76.56
2018-05-03T00:57:47.370Z,76.49
2018-05-03T01:00:13.827Z,76.98
2018-05-03T01:02:40.258Z,78.06
2018-05-03T01:05:06.639Z,78.25
2018-05-03T01:07:33.025Z,77.85
2018-05-03T01:09:59.463Z,78.52
2018-05-03T01:12:25.890Z,79.14
2018-05-03T01:14:52.363Z,78.03
2018-05-03T01:17:18.739Z,77.02
2018-05-03T01:19:45.158Z,77.66
2018-05-03T01:22:11.579Z,77.50
2018-05-03T01:24:38.006Z,76.12
2018-05-03T01:27:04.521Z,74.60
2018-05-03T01:29:30.969Z,74.14
2018-05-03T01:31:57.361Z,73.60
2018-05-03T01:34:23.837Z,73.50
2018-05-03T01:36:50.195Z,73.44
2018-05-03T01:39:16.581Z,73.35
2018-05-03T01:41:43.090Z,73.64
2018-05-03T01:44:09.524Z,74.40
2018-05-03T01:46:35.932Z,75.69
2018-05-03T01:49:02.395Z,77.48
2018-05-03T01:51:28.755Z,78.87
2018-05-03T01:53:55.254Z,79.63
2018-05-03T01:56:21.715Z,80.11
2018-05-03T01:58:48.254Z,78.44
2018-05-03T02:01:14.718Z,77.29
2018-05-03T02:03:41.766Z,76.33
2018-05-03T02:06:08.274Z,77.97
2018-05-03T02:08:34.815Z,78.54
2018-05-03T02:11:01.297Z,78.21
2018-05-03T02:13:27.743Z,76.94
2018-05-03T02:15:54.196Z,76.58
2018-05-03T02:18:20.541Z,77.09
2018-05-03T02:20:46.902Z,78.49
2018-05-03T02:23:13.276Z,80.04
2018-05-03T02:25:39.861Z,81.47
2018-05-03T02:28:06.236Z,82.42
2018-05-03T02:30:32.678Z,81.85
2018-05-03T02:32:59.066Z,81.14
2018-05-03T02:35:25.527Z,80.76
2018-05-03T02:37:52.019Z,79.77
2018-05-03T02:40:18.503Z,78.82
2018-05-03T02:42:44.985Z,77.60
2018-05-03T02:45:11.442Z,76.56
2018-05-03T02:47:37.928Z,78.32
2018-05-03T02:50:04.399Z,78.31
2018-05-03T02:52:30.913Z,78.16
2018-05-03T02:54:57.375Z,79.79
2018-05-03T03:11:24.818Z,77.54
2018-05-03T03:14:27.238Z,79.11
2018-05-03T03:17:12.048Z,81.58
2018-05-03T03:20:02.611Z,81.20
2018-05-03T03:22:47.613Z,80.55
2018-05-03T03:39:21.896Z,83.02
2018-05-03T03:41:48.464Z,83.30
2018-05-03T03:44:27.028Z,83.37
2018-05-03T03:46:53.527Z,82.95
2018-05-03T03:49:20.014Z,82.96
2018-05-03T03:51:46.471Z,83.10
2018-05-03T03:54:12.929Z,81.37
2018-05-03T03:56:39.363Z,80.22
2018-05-03T03:59:05.835Z,79.33
2018-05-03T04:01:32.246Z,78.38
2018-05-03T04:03:58.629Z,79.70
2018-05-03T04:06:25.118Z,81.27
2018-05-03T04:08:51.526Z,81.17
2018-05-03T04:11:17.949Z,82.25
2018-05-03T04:13:44.470Z,82.61
2018-05-03T04:16:11.090Z,83.39
2018-05-03T04:18:49.660Z,83.27
2018-05-03T04:21:28.314Z,82.81
2018-05-03T04:24:07.574Z,82.80
2018-05-03T04:26:34.089Z,82.61
2018-05-03T04:29:00.664Z,82.49
2018-05-03T04:31:27.218Z,81.90
2018-05-03T04:33:53.622Z,81.09
2018-05-03T04:36:20.141Z,81.30
2018-05-03T04:38:46.584Z,82.13
2018-05-03T04:41:13.008Z,81.75
2018-05-03T04:43:39.526Z,82.17
2018-05-03T04:46:05.917Z,82.03
2018-05-03T04:48:32.278Z,80.36
2018-05-03T04:50:58.702Z,79.72
2018-05-03T04:53:25.254Z,79.15
2018-05-03T04:55:52.249Z,81.33
2018-05-03T04:58:18.666Z,82.13
2018-05-03T05:00:45.113Z,83.07
2018-05-03T05:03:11.546Z,83.78
2018-05-03T05:05:38.040Z,83.41
2018-05-03T05:08:04.407Z,82.08
2018-05-03T05:10:30.814Z,81.03
2018-05-03T05:12:57.239Z,82.41
2018-05-03T05:15:24.875Z,82.32
2018-05-03T05:17:51.355Z,81.51
2018-05-03T05:20:17.841Z,82.29
2018-05-03T05:22:44.970Z,82.65
2018-05-03T05:25:11.397Z,82.02
2018-05-03T05:27:37.829Z,82.25
2018-05-03T05:30:04.201Z,82.29
2018-05-03T05:32:30.581Z,81.09
2018-05-03T05:34:57.037Z,79.83
2018-05-03T05:37:23.498Z,80.07
2018-05-03T05:39:49.997Z,80.50
2018-05-03T05:42:16.423Z,79.43
2018-05-03T05:44:42.801Z,79.76
2018-05-03T05:47:09.469Z,80.70
2018-05-03T05:49:35.928Z,81.42
2018-05-03T05:52:02.367Z,81.14
2018-05-03T05:54:28.869Z,81.13
2018-05-03T05:56:56.524Z,80.11
2018-05-03T05:59:23.110Z,78.60
2018-05-03T06:01:49.524Z,78.02
2018-05-03T06:04:16.792Z,78.66
2018-05-03T06:06:43.331Z,78.05
2018-05-03T06:09:10.426Z,77.16
2018-05-03T06:11:36.891Z,76.69
2018-05-03T06:14:03.620Z,76.81
2018-05-03T06:16:30.071Z,76.91
2018-05-03T06:18:56.522Z,78.48
2018-05-03T06:21:22.962Z,77.58
2018-05-03T06:23:49.694Z,77.77
2018-05-03T06:26:17.350Z,77.82
2018-05-03T06:28:43.792Z,77.30
2018-05-03T06:31:11.166Z,76.77
2018-05-03T06:33:37.529Z,75.69
2018-05-03T06:36:04.093Z,75.37
2018-05-03T06:38:30.632Z,76.77
2018-05-03T06:40:57.085Z,76.89
2018-05-03T06:43:23.455Z,77.94
2018-05-03T06:45:50.471Z,76.95
2018-05-03T06:48:16.925Z,76.50
2018-05-03T06:50:43.415Z,75.38
2018-05-03T06:53:09.895Z,75.26
2018-05-03T06:55:36.300Z,75.85
2018-05-03T06:58:02.706Z,76.32
2018-05-03T07:00:29.104Z,76.92
2018-05-03T07:02:55.511Z,77.72
2018-05-03T07:05:21.903Z,78.50
2018-05-03T07:07:48.315Z,79.61
2018-05-03T07:10:14.756Z,79.28
2018-05-03T07:12:41.245Z,78.07
2018-05-03T07:15:07.829Z,77.19
2018-05-03T07:17:34.301Z,77.77
2018-05-03T07:20:00.708Z,78.11
2018-05-03T07:22:27.204Z,77.86
2018-05-03T07:24:53.552Z,77.24
2018-05-03T07:27:19.962Z,77.14
2018-05-03T07:29:46.399Z,77.72
2018-05-03T07:32:12.826Z,78.51
2018-05-03T07:34:39.327Z,78.14
2018-05-03T07:37:05.762Z,78.18
2018-05-03T07:39:32.248Z,77.67
2018-05-03T07:41:58.862Z,78.50
2018-05-03T07:44:25.372Z,78.53
2018-05-03T07:46:51.782Z,77.50
2018-05-03T07:49:18.259Z,76.33
2018-05-03T07:51:44.694Z,74.89
2018-05-03T07:54:11.141Z,74.67
2018-05-03T07:56:37.558Z,74.34
2018-05-03T07:59:04.036Z,74.17
2018-05-03T08:01:30.447Z,75.09
2018-05-03T08:03:56.827Z,75.99
2018-05-03T08:06:23.309Z,75.76
2018-05-03T08:08:49.768Z,75.16
2018-05-03T08:11:16.592Z,74.52
2018-05-03T08:13:43.285Z,73.52
2018-05-03T08:16:09.736Z,72.93
2018-05-03T08:18:36.345Z,73.01
2018-05-03T08:21:02.883Z,74.46
2018-05-03T08:23:29.386Z,75.52
2018-05-03T08:26:01.166Z,73.99
2018-05-03T08:28:27.618Z,73.79
2018-05-03T08:30:54.105Z,73.93
2018-05-03T08:33:20.640Z,73.27
2018-05-03T08:35:47.061Z,72.48
2018-05-03T08:38:15.293Z,71.89
2018-05-03T08:40:41.883Z,72.62
2018-05-03T08:43:08.444Z,72.83
2018-05-03T08:45:34.982Z,72.51
2018-05-03T08:48:01.390Z,71.94
2018-05-03T08:50:27.770Z,71.04
2018-05-03T08:52:54.255Z,70.26
2018-05-03T08:55:20.653Z,71.63
2018-05-03T08:57:47.120Z,71.36
2018-05-03T09:00:13.528Z,72.70
2018-05-03T09:02:39.918Z,72.63
2018-05-03T09:05:06.458Z,71.31
2018-05-03T09:07:32.841Z,70.28
2018-05-03T09:09:59.317Z,69.78
2018-05-03T09:12:26.049Z,69.78
2018-05-03T09:14:52.523Z,69.23
2018-05-03T09:17:20.177Z,68.75
2018-05-03T09:19:46.621Z,66.88
2018-05-03T09:22:13.017Z,65.56
2018-05-03T09:24:39.427Z,66.07
2018-05-03T09:27:05.948Z,65.78
2018-05-03T09:29:32.390Z,66.44
2018-05-03T09:31:58.957Z,65.95
2018-05-03T09:34:25.954Z,65.76
2018-05-03T09:36:52.317Z,65.66
2018-05-03T09:39:18.824Z,64.71
2018-05-03T09:41:45.338Z,63.56
2018-05-03T09:44:11.834Z,64.01
2018-05-03T09:46:38.372Z,63.87
2018-05-03T09:49:04.845Z,63.69
2018-05-03T09:51:31.396Z,61.56
2018-05-03T09:53:57.911Z,62.05
2018-05-03T09:56:24.247Z,63.31
2018-05-03T09:58:51.033Z,63.44
2018-05-03T10:01:17.743Z,62.19
2018-05-03T10:03:44.187Z,61.65
2018-05-03T10:06:10.606Z,61.62
2018-05-03T10:08:37.078Z,60.17
2018-05-03T10:11:03.591Z,61.13
2018-05-03T10:13:30.127Z,61.39
2018-05-03T10:15:56.511Z,61.09
2018-05-03T10:18:22.935Z,60.04
2018-05-03T10:20:49.423Z,57.67
2018-05-03T10:23:15.946Z,57.43
2018-05-03T10:25:42.443Z,58.17
2018-05-03T10:28:08.842Z,60.17
2018-05-03T10:30:35.246Z,57.40
2018-05-03T10:33:01.757Z,60.49
2018-05-03T10:35:28.134Z,57.29
2018-05-03T10:37:54.633Z,60.31
2018-05-03T10:40:21.173Z,61.08
2018-05-03T10:42:47.642Z,62.25
2018-05-03T10:45:14.200Z,60.01
2018-05-03T10:47:40.718Z,59.11
2018-05-03T10:50:07.246Z,59.02
2018-05-03T10:52:33.618Z,59.73
2018-05-03T10:54:59.987Z,59.48
2018-05-03T10:57:26.477Z,57.68
2018-05-03T10:59:52.837Z,60.37
2018-05-03T11:02:19.269Z,59.38
2018-05-03T11:04:45.798Z,58.65
2018-05-03T11:07:12.233Z,58.13
2018-05-03T11:09:38.628Z,58.66
2018-05-03T11:12:05.197Z,55.81
2018-05-03T11:14:31.632Z,58.58
2018-05-03T11:16:57.996Z,58.76
2018-05-03T11:19:24.491Z,57.18
2018-05-03T11:21:50.900Z,58.42
2018-05-03T11:24:17.322Z,58.52
2018-05-03T11:26:43.710Z,57.16
2018-05-03T11:29:10.147Z,58.68
2018-05-03T11:31:36.573Z,57.61
2018-05-03T11:34:03.118Z,55.52
2018-05-03T11:36:29.552Z,57.36
2018-05-03T11:38:56.166Z,54.34
2018-05-03T11:41:22.647Z,54.71
2018-05-03T11:43:49.107Z,57.62
2018-05-03T11:46:15.631Z,55.10
2018-05-03T11:48:42.074Z,55.91
2018-05-03T11:51:08.483Z,55.13
2018-05-03T11:53:35.000Z,55.56
2018-05-03T11:56:01.711Z,54.91
2018-05-03T11:58:28.127Z,53.35
2018-05-03T12:00:54.550Z,54.07
2018-05-03T12:03:21.079Z,52.85
2018-05-03T12:05:47.505Z,53.77
2018-05-03T12:08:13.933Z,55.01
2018-05-03T12:10:40.357Z,53.32
2018-05-03T12:13:06.794Z,54.72
2018-05-03T12:15:33.242Z,54.89
2018-05-03T12:17:59.747Z,55.99
2018-05-03T12:20:26.308Z,54.73
2018-05-03T12:22:52.678Z,53.69
2018-05-03T12:25:19.105Z,54.55
2018-05-03T12:27:45.570Z,54.83
2018-05-03T12:30:11.930Z,54.96
2018-05-03T12:32:38.332Z,54.55
2018-05-03T12:35:04.782Z,54.53
2018-05-03T12:37:31.222Z,53.95
2018-05-03T12:39:57.686Z,53.33
2018-05-03T12:42:24.138Z,54.51
2018-05-03T12:44:50.620Z,54.03
2018-05-03T12:47:17.092Z,53.70
2018-05-03T12:49:43.491Z,53.08
2018-05-03T12:52:09.846Z,52.81
2018-05-03T12:54:36.341Z,52.97
2018-05-03T12:57:02.669Z,53.17
2018-05-03T12:59:29.125Z,52.94
2018-05-03T13:01:55.531Z,53.62
2018-05-03T13:04:22.016Z,53.28
2018-05-03T13:06:48.436Z,53.36
2018-05-03T13:09:14.882Z,53.18
2018-05-03T13:11:41.269Z,53.10
2018-05-03T13:14:07.710Z,52.58
2018-05-03T13:16:34.334Z,52.79
2018-05-03T13:19:00.905Z,52.99
2018-05-03T13:21:27.318Z,52.38
2018-05-03T13:23:53.678Z,52.13
2018-05-03T13:26:20.124Z,52.19
2018-05-03T13:28:46.619Z,52.57
2018-05-03T13:31:13.052Z,52.50
2018-05-03T13:33:39.637Z,51.34
2018-05-03T13:36:05.990Z,51.95
2018-05-03T13:38:32.554Z,51.15
2018-05-03T13:40:59.130Z,50.47
2018-05-03T13:43:25.618Z,49.25
2018-05-03T13:45:52.176Z,48.42
2018-05-03T13:48:18.590Z,50.83
2018-05-03T13:50:45.097Z,50.12
2018-05-03T13:53:11.529Z,49.52
2018-05-03T13:55:37.977Z,51.22
2018-05-03T13:58:04.440Z,51.09
2018-05-03T14:00:30.876Z,48.27
2018-05-03T14:02:57.446Z,49.28
2018-05-03T14:05:24.056Z,49.18
2018-05-03T14:07:50.498Z,51.16
2018-05-03T14:10:17.157Z,48.88
2018-05-03T14:12:43.627Z,50.41
2018-05-03T14:15:10.135Z,51.92
2018-05-03T14:17:36.605Z,51.65
2018-05-03T14:20:03.258Z,50.99
2018-05-03T14:22:29.700Z,50.41
2018-05-03T14:24:56.170Z,51.27
2018-05-03T14:27:22.607Z,50.90
2018-05-03T14:29:48.965Z,48.51
2018-05-03T14:32:15.442Z,51.21
2018-05-03T14:34:42.063Z,50.82
2018-05-03T14:37:08.682Z,51.21
2018-05-03T14:39:35.149Z,50.98
2018-05-03T14:42:01.507Z,49.98
2018-05-03T14:44:27.966Z,49.27
2018-05-03T14:46:54.463Z,50.38
2018-05-03T14:49:20.939Z,51.03
2018-05-03T14:51:48.365Z,48.81
2018-05-03T14:54:14.810Z,50.33
2018-05-03T14:56:41.173Z,50.55
2018-05-03T14:59:07.647Z,50.74
2018-05-03T15:01:34.149Z,50.66
2018-05-03T15:04:00.702Z,50.75
2018-05-03T15:06:27.155Z,49.60
2018-05-03T15:08:53.545Z,47.70
2018-05-03T15:11:20.104Z,49.54
2018-05-03T15:13:46.687Z,50.72
2018-05-03T15:16:13.309Z,48.07
2018-05-03T15:18:39.671Z,49.55
2018-05-03T15:21:06.037Z,49.64
2018-05-03T15:23:32.487Z,48.10
2018-05-03T15:25:58.918Z,49.70
2018-05-03T15:28:25.366Z,50.98
2018-05-03T15:30:51.785Z,51.11
2018-05-03T15:33:18.230Z,48.51
2018-05-03T15:35:44.683Z,49.86
2018-05-03T15:38:11.093Z,50.90
2018-05-03T15:40:37.546Z,49.92
2018-05-03T15:43:04.018Z,48.75
2018-05-03T15:45:30.457Z,48.54
2018-05-03T15:47:57.027Z,48.50
2018-05-03T15:50:23.418Z,49.19
2018-05-03T15:52:49.964Z,48.36
2018-05-03T15:55:16.288Z,49.81
2018-05-03T15:57:42.666Z,49.47
2018-05-03T16:00:10.138Z,50.84
2018-05-03T16:02:37.362Z,49.95
2018-05-03T16:05:03.852Z,49.29
2018-05-03T16:07:30.391Z,51.56
2018-05-03T16:09:56.782Z,50.88
2018-05-03T16:12:23.226Z,50.40
2018-05-03T16:14:49.683Z,49.82
2018-05-03T16:17:16.156Z,50.91
2018-05-03T16:19:42.562Z,50.44
2018-05-03T16:22:09.056Z,50.07
2018-05-03T16:24:35.773Z,50.50
2018-05-03T16:27:02.318Z,50.99
2018-05-03T16:29:28.838Z,50.60
2018-05-03T16:31:55.289Z,51.08
2018-05-03T16:34:21.754Z,51.62
2018-05-03T16:36:48.190Z,51.80
2018-05-03T16:39:14.714Z,51.33
2018-05-03T16:41:41.175Z,51.50
2018-05-03T16:44:07.584Z,52.09
2018-05-03T16:46:34.011Z,51.80
2018-05-03T16:49:00.451Z,51.97
2018-05-03T16:51:26.902Z,51.71
2018-05-03T16:53:53.347Z,52.87
2018-05-03T16:56:19.826Z,53.11
2018-05-03T16:58:46.260Z,53.47
2018-05-03T17:01:12.641Z,53.76
2018-05-03T17:03:39.039Z,54.34
2018-05-03T17:06:05.436Z,54.88
2018-05-03T17:08:31.790Z,55.37
2018-05-03T17:10:58.300Z,54.74
2018-05-03T17:13:24.710Z,55.10
2018-05-03T17:15:51.965Z,55.73
2018-05-03T17:18:18.471Z,56.03
2018-05-03T17:20:44.949Z,56.26
2018-05-03T17:23:11.382Z,56.97
2018-05-03T17:25:37.765Z,57.05
2018-05-03T17:28:04.239Z,57.38
2018-05-03T17:30:30.770Z,57.82
2018-05-03T17:32:57.146Z,57.78
2018-05-03T17:35:23.608Z,58.07
2018-05-03T17:37:49.969Z,58.36
2018-05-03T17:40:16.440Z,59.22
2018-05-03T17:42:42.886Z,59.29
2018-05-03T17:45:09.271Z,59.57
2018-05-03T17:47:35.696Z,59.83
2018-05-03T17:50:02.178Z,59.41
2018-05-03T17:52:28.701Z,59.30
2018-05-03T17:54:55.278Z,59.97
2018-05-03T17:57:21.634Z,60.31
2018-05-03T17:59:48.104Z,60.80
2018-05-03T18:02:14.544Z,60.43
2018-05-03T18:04:40.937Z,60.09
2018-05-03T18:07:07.428Z,60.00
2018-05-03T18:09:33.923Z,60.46
2018-05-03T18:12:00.339Z,61.19
2018-05-03T18:14:26.780Z,61.14
2018-05-03T18:16:53.248Z,61.42
2018-05-03T18:19:19.673Z,61.44
2018-05-03T18:21:46.220Z,61.29
2018-05-03T18:24:12.608Z,61.36
2018-05-03T18:26:39.012Z,61.71
2018-05-03T18:29:05.452Z,61.90
2018-05-03T18:31:31.870Z,61.61
2018-05-03T18:33:58.275Z,61.60
2018-05-03T18:36:24.740Z,61.73
2018-05-03T18:38:51.144Z,61.67
2018-05-03T18:41:17.586Z,61.93
2018-05-03T18:43:44.125Z,62.37
2018-05-03T18:46:10.573Z,62.26
2018-05-03T18:48:36.969Z,61.96
2018-05-03T18:51:03.395Z,62.52
2018-05-03T18:53:29.845Z,62.38
2018-05-03T18:55:56.314Z,62.34
2018-05-03T18:58:22.848Z,62.34
2018-05-03T19:00:49.204Z,62.55
2018-05-03T19:03:15.706Z,62.25
2018-05-03T19:05:42.182Z,62.35
2018-05-03T19:08:08.647Z,62.37
2018-05-03T19:10:35.105Z,62.56
2018-05-03T19:13:01.577Z,62.61
2018-05-03T19:15:29.075Z,62.30
2018-05-03T19:17:55.503Z,62.50
2018-05-03T19:20:21.997Z,62.39
2018-05-03T19:22:48.446Z,61.80
2018-05-03T19:25:14.959Z,61.83
2018-05-03T19:27:41.445Z,61.41
2018-05-03T19:30:07.873Z,61.43
2018-05-03T19:32:34.291Z,61.57
2018-05-03T19:35:00.751Z,61.59
2018-05-03T19:37:27.324Z,61.56
2018-05-03T19:39:53.846Z,62.01
2018-05-03T19:42:20.389Z,61.92
2018-05-03T19:44:46.908Z,62.24
2018-05-03T19:47:13.398Z,62.38
2018-05-03T19:49:39.833Z,62.33
2018-05-03T19:52:06.350Z,62.71
2018-05-03T19:54:32.806Z,62.85
2018-05-03T19:56:59.265Z,63.06
2018-05-03T19:59:25.779Z,63.14
2018-05-03T20:01:52.337Z,63.30
2018-05-03T20:04:18.829Z,63.35
2018-05-03T20:06:45.278Z,63.67
2018-05-03T20:09:11.731Z,63.52
2018-05-03T20:11:38.114Z,63.35
2018-05-03T20:14:04.612Z,63.70
2018-05-03T20:16:31.014Z,63.15
2018-05-03T20:18:57.558Z,63.22
2018-05-03T20:21:23.961Z,63.34
2018-05-03T20:23:50.921Z,63.63
2018-05-03T20:26:17.407Z,64.00
2018-05-03T20:28:43.820Z,64.13
2018-05-03T20:31:11.613Z,64.35
2018-05-03T20:33:38.088Z,64.34
2018-05-03T20:36:04.441Z,64.34
2018-05-03T20:38:30.903Z,64.57
2018-05-03T20:40:57.362Z,65.00
2018-05-03T20:43:23.898Z,64.89
2018-05-03T20:45:50.420Z,64.65
2018-05-03T20:48:16.800Z,64.60
2018-05-03T20:50:43.356Z,64.48
2018-05-03T20:53:10.518Z,64.62
2018-05-03T20:55:37.054Z,64.96
2018-05-03T20:58:03.427Z,65.10
2018-05-03T21:00:29.958Z,65.41
2018-05-03T21:02:56.619Z,65.42
2018-05-03T21:05:23.038Z,65.81
2018-05-03T21:07:50.074Z,65.68
2018-05-03T21:10:16.668Z,65.71
2018-05-03T21:12:43.146Z,65.69
2018-05-03T21:15:09.481Z,65.86
2018-05-03T21:17:35.919Z,65.78
2018-05-03T21:20:02.414Z,65.41
2018-05-03T21:22:28.843Z,65.37
2018-05-03T21:24:55.386Z,65.82
2018-05-03T21:27:21.835Z,65.78
2018-05-03T21:29:48.215Z,66.04
2018-05-03T21:32:14.651Z,66.02
2018-05-03T21:34:41.053Z,66.38
2018-05-03T21:37:07.529Z,66.98
2018-05-03T21:39:34.851Z,67.76
2018-05-03T21:42:01.271Z,67.71
2018-05-03T21:44:27.647Z,67.52
2018-05-03T21:46:54.138Z,67.41
2018-05-03T21:49:20.584Z,67.36
2018-05-03T21:51:46.941Z,68.16
2018-05-03T21:54:13.409Z,68.38
2018-05-03T21:56:39.845Z,68.37
2018-05-03T21:59:06.319Z,68.50
2018-05-03T22:01:32.719Z,68.66
2018-05-03T22:03:59.147Z,68.76
2018-05-03T22:06:25.574Z,69.11
2018-05-03T22:08:52.066Z,69.45
2018-05-03T22:11:18.424Z,69.66
2018-05-03T22:13:45.043Z,69.95
2018-05-03T22:16:11.471Z,70.26
2018-05-03T22:18:37.962Z,70.92
2018-05-03T22:21:04.401Z,71.32
2018-05-03T22:23:30.787Z,71.10
2018-05-03T22:25:57.210Z,71.29
2018-05-03T22:28:23.639Z,70.99
2018-05-03T22:30:50.122Z,71.50
2018-05-03T22:33:16.637Z,71.32
2018-05-03T22:35:43.047Z,71.60
2018-05-03T22:38:09.673Z,71.80
2018-05-03T22:40:36.906Z,71.58
2018-05-03T22:43:03.398Z,71.58
2018-05-03T22:45:29.857Z,72.12
2018-05-03T22:47:56.285Z,72.83
2018-05-03T22:50:23.866Z,72.75
2018-05-03T22:52:50.327Z,72.90
2018-05-03T22:55:16.724Z,73.21
2018-05-03T22:57:43.188Z,73.19
2018-05-03T23:00:09.766Z,74.25
2018-05-03T23:02:36.041Z,73.96
2018-05-03T23:05:02.724Z,73.71
2018-05-03T23:07:29.267Z,73.42
2018-05-03T23:09:55.791Z,73.45
2018-05-03T23:12:22.233Z,74.09
2018-05-03T23:14:48.825Z,74.25
2018-05-03T23:17:15.320Z,74.06
2018-05-03T23:19:42.642Z,74.25
2018-05-03T23:22:09.135Z,74.28
2018-05-03T23:24:35.690Z,75.15
2018-05-03T23:27:02.138Z,75.07
2018-05-03T23:29:28.570Z,74.54
2018-05-03T23:31:55.065Z,73.89
2018-05-03T23:34:21.617Z,73.86
2018-05-03T23:36:48.185Z,73.95
2018-05-03T23:39:14.570Z,73.74
2018-05-03T23:41:41.071Z,73.98
2018-05-03T23:44:07.553Z,75.76
2018-05-03T23:46:34.038Z,75.71
2018-05-03T23:49:00.474Z,75.28
2018-05-03T23:51:26.909Z,74.58
2018-05-03T23:53:53.291Z,74.61
2018-05-03T23:56:19.774Z,74.58
2018-05-03T23:58:46.254Z,74.09
